sensor_id;sensor_type;location;lat;lon;timestamp;temperature;humidity
70184;DHT22;57554;51.546;6.776;2023-10-09T00:00:12;15.30;77.50
70184;DHT22;57554;51.546;6.776;2023-10-09T00:02:57;15.40;77.60
70184;DHT22;57554;51.546;6.776;2023-10-09T00:05:26;15.50;77.50
70184;DHT22;57554;51.546;6.776;2023-10-09T00:08:13;15.60;77.70
70184;DHT22;57554;51.546;6.776;2023-10-09T00:10:50;15.70;77.80
70184;DHT22;57554;51.546;6.776;2023-10-09T00:13:23;15.80;77.90
70184;DHT22;57554;51.546;6.776;2023-10-09T00:15:55;15.90;78.00
70184;DHT22;57554;51.546;6.776;2023-10-09T00:18:25;15.90;77.90
70184;DHT22;57554;51.546;6.776;2023-10-09T00:20:55;16.00;77.80
70184;DHT22;57554;51.546;6.776;2023-10-09T00:23:26;16.00;77.80
70184;DHT22;57554;51.546;6.776;2023-10-09T00:25:53;16.10;77.80
70184;DHT22;57554;51.546;6.776;2023-10-09T00:28:35;16.10;77.70
70184;DHT22;57554;51.546;6.776;2023-10-09T00:31:03;16.10;77.70
70184;DHT22;57554;51.546;6.776;2023-10-09T00:33:32;16.10;77.70
70184;DHT22;57554;51.546;6.776;2023-10-09T00:36:04;16.10;77.70
70184;DHT22;57554;51.546;6.776;2023-10-09T00:38:39;16.10;77.80
70184;DHT22;57554;51.546;6.776;2023-10-09T00:41:09;16.10;77.90
70184;DHT22;57554;51.546;6.776;2023-10-09T00:43:37;16.10;77.80
70184;DHT22;57554;51.546;6.776;2023-10-09T00:46:04;16.10;77.80
70184;DHT22;57554;51.546;6.776;2023-10-09T00:48:47;16.20;77.80
70184;DHT22;57554;51.546;6.776;2023-10-09T00:51:14;16.20;77.60
70184;DHT22;57554;51.546;6.776;2023-10-09T00:54:10;16.30;77.40
70184;DHT22;57554;51.546;6.776;2023-10-09T00:56:40;16.30;77.30
70184;DHT22;57554;51.546;6.776;2023-10-09T00:59:10;16.30;77.10
70184;DHT22;57554;51.546;6.776;2023-10-09T01:01:42;16.30;77.00
70184;DHT22;57554;51.546;6.776;2023-10-09T01:04:34;16.30;76.90
70184;DHT22;57554;51.546;6.776;2023-10-09T01:07:04;16.30;76.70
70184;DHT22;57554;51.546;6.776;2023-10-09T01:09:46;16.30;76.60
70184;DHT22;57554;51.546;6.776;2023-10-09T01:12:15;16.40;76.40
70184;DHT22;57554;51.546;6.776;2023-10-09T01:14:44;16.40;76.40
70184;DHT22;57554;51.546;6.776;2023-10-09T01:17:10;16.40;76.30
70184;DHT22;57554;51.546;6.776;2023-10-09T01:19:37;16.40;76.20
70184;DHT22;57554;51.546;6.776;2023-10-09T01:22:03;16.40;76.10
70184;DHT22;57554;51.546;6.776;2023-10-09T01:24:39;16.40;76.10
70184;DHT22;57554;51.546;6.776;2023-10-09T01:27:06;16.40;76.10
70184;DHT22;57554;51.546;6.776;2023-10-09T01:29:38;16.40;76.10
70184;DHT22;57554;51.546;6.776;2023-10-09T01:32:07;16.40;76.10
70184;DHT22;57554;51.546;6.776;2023-10-09T01:34:35;16.40;76.00
70184;DHT22;57554;51.546;6.776;2023-10-09T01:37:03;16.40;75.90
70184;DHT22;57554;51.546;6.776;2023-10-09T01:39:31;16.40;75.90
70184;DHT22;57554;51.546;6.776;2023-10-09T01:41:57;16.40;76.00
70184;DHT22;57554;51.546;6.776;2023-10-09T01:44:27;16.40;76.00
70184;DHT22;57554;51.546;6.776;2023-10-09T01:47:03;16.30;76.00
70184;DHT22;57554;51.546;6.776;2023-10-09T01:49:35;16.40;76.10
70184;DHT22;57554;51.546;6.776;2023-10-09T01:52:07;16.30;76.10
70184;DHT22;57554;51.546;6.776;2023-10-09T01:54:43;16.30;76.10
70184;DHT22;57554;51.546;6.776;2023-10-09T01:57:14;16.30;76.10
70184;DHT22;57554;51.546;6.776;2023-10-09T01:59:42;16.20;76.20
70184;DHT22;57554;51.546;6.776;2023-10-09T02:02:14;16.20;76.30
70184;DHT22;57554;51.546;6.776;2023-10-09T02:04:53;16.20;76.40
70184;DHT22;57554;51.546;6.776;2023-10-09T02:07:51;16.10;76.60
70184;DHT22;57554;51.546;6.776;2023-10-09T02:10:21;16.10;76.80
70184;DHT22;57554;51.546;6.776;2023-10-09T02:12:51;16.10;76.80
70184;DHT22;57554;51.546;6.776;2023-10-09T02:15:23;16.10;76.90
70184;DHT22;57554;51.546;6.776;2023-10-09T02:18:08;16.10;76.90
70184;DHT22;57554;51.546;6.776;2023-10-09T02:20:47;16.10;76.90
70184;DHT22;57554;51.546;6.776;2023-10-09T02:23:20;16.10;76.90
70184;DHT22;57554;51.546;6.776;2023-10-09T02:25:46;16.10;76.90
70184;DHT22;57554;51.546;6.776;2023-10-09T02:28:12;16.10;76.90
70184;DHT22;57554;51.546;6.776;2023-10-09T02:30:44;16.10;77.00
70184;DHT22;57554;51.546;6.776;2023-10-09T02:33:14;16.10;77.10
70184;DHT22;57554;51.546;6.776;2023-10-09T02:35:39;16.10;77.20
70184;DHT22;57554;51.546;6.776;2023-10-09T02:38:08;16.20;77.20
70184;DHT22;57554;51.546;6.776;2023-10-09T02:40:36;16.20;77.30
70184;DHT22;57554;51.546;6.776;2023-10-09T02:43:20;16.20;77.30
70184;DHT22;57554;51.546;6.776;2023-10-09T02:45:46;16.20;77.20
70184;DHT22;57554;51.546;6.776;2023-10-09T02:48:16;16.20;77.30
70184;DHT22;57554;51.546;6.776;2023-10-09T02:50:45;16.20;77.40
70184;DHT22;57554;51.546;6.776;2023-10-09T02:53:11;16.20;77.40
70184;DHT22;57554;51.546;6.776;2023-10-09T02:55:44;16.20;77.50
70184;DHT22;57554;51.546;6.776;2023-10-09T02:58:29;16.20;77.40
70184;DHT22;57554;51.546;6.776;2023-10-09T03:00:57;16.20;77.50
70184;DHT22;57554;51.546;6.776;2023-10-09T03:03:23;16.30;77.40
70184;DHT22;57554;51.546;6.776;2023-10-09T03:05:50;16.30;77.40
70184;DHT22;57554;51.546;6.776;2023-10-09T03:08:16;16.30;77.40
70184;DHT22;57554;51.546;6.776;2023-10-09T03:10:45;16.30;77.40
70184;DHT22;57554;51.546;6.776;2023-10-09T03:13:10;16.30;77.40
70184;DHT22;57554;51.546;6.776;2023-10-09T03:15:38;16.30;77.30
70184;DHT22;57554;51.546;6.776;2023-10-09T03:18:03;16.30;77.30
70184;DHT22;57554;51.546;6.776;2023-10-09T03:20:32;16.30;77.40
70184;DHT22;57554;51.546;6.776;2023-10-09T03:22:57;16.40;77.30
70184;DHT22;57554;51.546;6.776;2023-10-09T03:25:26;16.40;77.20
70184;DHT22;57554;51.546;6.776;2023-10-09T03:27:52;16.40;77.20
70184;DHT22;57554;51.546;6.776;2023-10-09T03:30:21;16.40;77.10
70184;DHT22;57554;51.546;6.776;2023-10-09T03:32:51;16.40;77.10
70184;DHT22;57554;51.546;6.776;2023-10-09T03:35:21;16.50;77.00
70184;DHT22;57554;51.546;6.776;2023-10-09T03:37:52;16.50;76.90
70184;DHT22;57554;51.546;6.776;2023-10-09T03:40:18;16.50;76.80
70184;DHT22;57554;51.546;6.776;2023-10-09T03:42:45;16.60;76.70
70184;DHT22;57554;51.546;6.776;2023-10-09T03:45:10;16.60;76.60
70184;DHT22;57554;51.546;6.776;2023-10-09T03:47:44;16.60;76.50
70184;DHT22;57554;51.546;6.776;2023-10-09T03:50:09;16.60;76.40
70184;DHT22;57554;51.546;6.776;2023-10-09T03:52:49;16.60;76.20
70184;DHT22;57554;51.546;6.776;2023-10-09T03:55:15;16.60;76.10
70184;DHT22;57554;51.546;6.776;2023-10-09T03:57:41;16.60;76.00
70184;DHT22;57554;51.546;6.776;2023-10-09T04:00:11;16.60;76.00
70184;DHT22;57554;51.546;6.776;2023-10-09T04:02:52;16.60;75.90
70184;DHT22;57554;51.546;6.776;2023-10-09T04:05:18;16.60;75.80
70184;DHT22;57554;51.546;6.776;2023-10-09T04:07:43;16.60;75.80
70184;DHT22;57554;51.546;6.776;2023-10-09T04:10:09;16.60;75.80
70184;DHT22;57554;51.546;6.776;2023-10-09T04:12:57;16.60;75.80
70184;DHT22;57554;51.546;6.776;2023-10-09T04:15:24;16.60;75.70
70184;DHT22;57554;51.546;6.776;2023-10-09T04:17:49;16.60;75.70
70184;DHT22;57554;51.546;6.776;2023-10-09T04:20:17;16.60;75.70
70184;DHT22;57554;51.546;6.776;2023-10-09T04:22:43;16.60;75.70
70184;DHT22;57554;51.546;6.776;2023-10-09T04:25:19;16.60;75.60
70184;DHT22;57554;51.546;6.776;2023-10-09T04:27:59;16.60;75.70
70184;DHT22;57554;51.546;6.776;2023-10-09T04:30:54;16.60;75.60
70184;DHT22;57554;51.546;6.776;2023-10-09T04:33:22;16.60;75.60
70184;DHT22;57554;51.546;6.776;2023-10-09T04:36:04;16.60;75.50
70184;DHT22;57554;51.546;6.776;2023-10-09T04:38:52;16.60;75.40
70184;DHT22;57554;51.546;6.776;2023-10-09T04:41:27;16.60;75.30
70184;DHT22;57554;51.546;6.776;2023-10-09T04:44:17;16.60;75.30
70184;DHT22;57554;51.546;6.776;2023-10-09T04:46:43;16.60;75.30
70184;DHT22;57554;51.546;6.776;2023-10-09T04:49:12;16.50;75.30
70184;DHT22;57554;51.546;6.776;2023-10-09T04:51:53;16.60;75.30
70184;DHT22;57554;51.546;6.776;2023-10-09T04:54:43;16.60;75.30
70184;DHT22;57554;51.546;6.776;2023-10-09T04:57:27;16.60;75.20
70184;DHT22;57554;51.546;6.776;2023-10-09T04:59:53;16.60;75.10
70184;DHT22;57554;51.546;6.776;2023-10-09T05:02:26;16.70;75.00
70184;DHT22;57554;51.546;6.776;2023-10-09T05:05:01;16.60;75.00
70184;DHT22;57554;51.546;6.776;2023-10-09T05:07:42;16.70;75.00
70184;DHT22;57554;51.546;6.776;2023-10-09T05:10:20;16.70;75.00
70184;DHT22;57554;51.546;6.776;2023-10-09T05:12:50;16.70;74.90
70184;DHT22;57554;51.546;6.776;2023-10-09T05:15:23;16.70;75.00
70184;DHT22;57554;51.546;6.776;2023-10-09T05:17:53;16.70;74.90
70184;DHT22;57554;51.546;6.776;2023-10-09T05:20:23;16.70;74.90
70184;DHT22;57554;51.546;6.776;2023-10-09T05:22:49;16.70;74.90
70184;DHT22;57554;51.546;6.776;2023-10-09T05:25:27;16.70;74.90
70184;DHT22;57554;51.546;6.776;2023-10-09T05:28:15;16.80;74.80
70184;DHT22;57554;51.546;6.776;2023-10-09T05:30:59;16.80;74.80
70184;DHT22;57554;51.546;6.776;2023-10-09T05:33:35;16.80;74.60
70184;DHT22;57554;51.546;6.776;2023-10-09T05:36:06;16.90;74.50
70184;DHT22;57554;51.546;6.776;2023-10-09T05:38:56;16.80;74.50
70184;DHT22;57554;51.546;6.776;2023-10-09T05:41:44;16.80;74.50
70184;DHT22;57554;51.546;6.776;2023-10-09T05:44:25;16.80;74.60
70184;DHT22;57554;51.546;6.776;2023-10-09T05:47:09;16.70;74.60
70184;DHT22;57554;51.546;6.776;2023-10-09T05:49:52;16.70;74.70
70184;DHT22;57554;51.546;6.776;2023-10-09T05:52:33;16.70;74.80
70184;DHT22;57554;51.546;6.776;2023-10-09T05:55:19;16.60;74.80
70184;DHT22;57554;51.546;6.776;2023-10-09T05:57:45;16.60;74.90
70184;DHT22;57554;51.546;6.776;2023-10-09T06:00:29;16.60;75.10
70184;DHT22;57554;51.546;6.776;2023-10-09T06:03:13;16.50;75.20
70184;DHT22;57554;51.546;6.776;2023-10-09T06:06:02;16.60;75.30
70184;DHT22;57554;51.546;6.776;2023-10-09T06:08:30;16.60;75.40
70184;DHT22;57554;51.546;6.776;2023-10-09T06:11:09;16.60;75.40
70184;DHT22;57554;51.546;6.776;2023-10-09T06:13:54;16.60;75.40
70184;DHT22;57554;51.546;6.776;2023-10-09T06:16:32;16.60;75.40
70184;DHT22;57554;51.546;6.776;2023-10-09T06:19:16;16.60;75.40
70184;DHT22;57554;51.546;6.776;2023-10-09T06:21:45;16.60;75.40
70184;DHT22;57554;51.546;6.776;2023-10-09T06:24:30;16.60;75.40
70184;DHT22;57554;51.546;6.776;2023-10-09T06:27:11;16.60;75.40
70184;DHT22;57554;51.546;6.776;2023-10-09T06:29:41;16.60;75.50
70184;DHT22;57554;51.546;6.776;2023-10-09T06:32:17;16.60;75.70
70184;DHT22;57554;51.546;6.776;2023-10-09T06:34:52;16.60;75.70
70184;DHT22;57554;51.546;6.776;2023-10-09T06:37:19;16.60;75.80
70184;DHT22;57554;51.546;6.776;2023-10-09T06:39:51;16.60;75.90
70184;DHT22;57554;51.546;6.776;2023-10-09T06:42:37;16.60;75.80
70184;DHT22;57554;51.546;6.776;2023-10-09T06:45:07;16.60;75.80
70184;DHT22;57554;51.546;6.776;2023-10-09T06:47:35;16.70;75.80
70184;DHT22;57554;51.546;6.776;2023-10-09T06:50:09;16.70;75.70
70184;DHT22;57554;51.546;6.776;2023-10-09T06:52:47;16.70;75.60
70184;DHT22;57554;51.546;6.776;2023-10-09T06:55:38;16.80;75.60
70184;DHT22;57554;51.546;6.776;2023-10-09T06:58:17;16.80;75.60
70184;DHT22;57554;51.546;6.776;2023-10-09T07:00:52;16.80;75.60
70184;DHT22;57554;51.546;6.776;2023-10-09T07:03:25;16.80;75.60
70184;DHT22;57554;51.546;6.776;2023-10-09T07:06:08;16.90;75.60
70184;DHT22;57554;51.546;6.776;2023-10-09T07:08:58;16.90;75.50
70184;DHT22;57554;51.546;6.776;2023-10-09T07:11:39;16.90;75.40
70184;DHT22;57554;51.546;6.776;2023-10-09T07:14:13;16.90;75.40
70184;DHT22;57554;51.546;6.776;2023-10-09T07:17:04;17.00;75.40
70184;DHT22;57554;51.546;6.776;2023-10-09T07:19:42;17.00;75.30
70184;DHT22;57554;51.546;6.776;2023-10-09T07:22:11;17.00;75.40
70184;DHT22;57554;51.546;6.776;2023-10-09T07:24:46;17.00;75.30
70184;DHT22;57554;51.546;6.776;2023-10-09T07:30:10;17.10;75.20
70184;DHT22;57554;51.546;6.776;2023-10-09T07:35:23;17.20;74.90
70184;DHT22;57554;51.546;6.776;2023-10-09T07:38:07;17.30;74.80
70184;DHT22;57554;51.546;6.776;2023-10-09T07:40:35;17.30;74.80
70184;DHT22;57554;51.546;6.776;2023-10-09T07:43:18;17.30;74.80
70184;DHT22;57554;51.546;6.776;2023-10-09T07:45:43;17.30;74.70
70184;DHT22;57554;51.546;6.776;2023-10-09T07:48:24;17.30;74.60
70184;DHT22;57554;51.546;6.776;2023-10-09T07:51:11;17.30;74.70
70184;DHT22;57554;51.546;6.776;2023-10-09T07:53:37;17.30;74.70
70184;DHT22;57554;51.546;6.776;2023-10-09T07:56:10;17.30;74.80
70184;DHT22;57554;51.546;6.776;2023-10-09T07:58:39;17.30;74.90
70184;DHT22;57554;51.546;6.776;2023-10-09T08:01:15;17.30;74.90
70184;DHT22;57554;51.546;6.776;2023-10-09T08:03:59;17.40;75.00
70184;DHT22;57554;51.546;6.776;2023-10-09T08:06:30;17.50;74.90
70184;DHT22;57554;51.546;6.776;2023-10-09T08:09:06;17.50;74.60
70184;DHT22;57554;51.546;6.776;2023-10-09T08:11:37;17.50;74.60
70184;DHT22;57554;51.546;6.776;2023-10-09T08:14:06;17.60;74.60
70184;DHT22;57554;51.546;6.776;2023-10-09T08:16:47;17.50;74.60
70184;DHT22;57554;51.546;6.776;2023-10-09T08:19:12;17.50;74.60
70184;DHT22;57554;51.546;6.776;2023-10-09T08:21:57;17.50;74.60
70184;DHT22;57554;51.546;6.776;2023-10-09T08:24:41;17.50;74.70
70184;DHT22;57554;51.546;6.776;2023-10-09T08:27:10;17.50;74.60
70184;DHT22;57554;51.546;6.776;2023-10-09T08:29:54;17.50;74.80
70184;DHT22;57554;51.546;6.776;2023-10-09T08:32:40;17.50;74.80
70184;DHT22;57554;51.546;6.776;2023-10-09T08:35:08;17.50;74.80
70184;DHT22;57554;51.546;6.776;2023-10-09T08:37:53;17.50;74.80
70184;DHT22;57554;51.546;6.776;2023-10-09T08:40:33;17.50;74.90
70184;DHT22;57554;51.546;6.776;2023-10-09T08:43:22;17.50;75.00
70184;DHT22;57554;51.546;6.776;2023-10-09T08:45:56;17.60;75.00
70184;DHT22;57554;51.546;6.776;2023-10-09T08:48:27;17.60;75.00
70184;DHT22;57554;51.546;6.776;2023-10-09T08:50:53;17.70;74.90
70184;DHT22;57554;51.546;6.776;2023-10-09T08:53:23;17.70;74.80
70184;DHT22;57554;51.546;6.776;2023-10-09T08:55:57;17.70;74.60
70184;DHT22;57554;51.546;6.776;2023-10-09T08:58:24;17.70;74.70
70184;DHT22;57554;51.546;6.776;2023-10-09T09:01:02;17.80;75.00
70184;DHT22;57554;51.546;6.776;2023-10-09T09:03:37;17.90;75.20
70184;DHT22;57554;51.546;6.776;2023-10-09T09:06:04;18.00;75.20
70184;DHT22;57554;51.546;6.776;2023-10-09T09:08:32;18.20;75.10
70184;DHT22;57554;51.546;6.776;2023-10-09T09:11:03;18.30;74.90
70184;DHT22;57554;51.546;6.776;2023-10-09T09:13:41;18.40;74.40
70184;DHT22;57554;51.546;6.776;2023-10-09T09:21:38;18.60;73.30
70184;DHT22;57554;51.546;6.776;2023-10-09T09:24:07;18.50;72.60
70184;DHT22;57554;51.546;6.776;2023-10-09T09:26:55;18.50;72.80
70184;DHT22;57554;51.546;6.776;2023-10-09T09:29:46;18.50;72.90
70184;DHT22;57554;51.546;6.776;2023-10-09T09:32:28;18.50;72.90
70184;DHT22;57554;51.546;6.776;2023-10-09T09:35:04;18.50;73.00
70184;DHT22;57554;51.546;6.776;2023-10-09T09:37:52;18.50;72.90
70184;DHT22;57554;51.546;6.776;2023-10-09T09:40:18;18.60;72.90
70184;DHT22;57554;51.546;6.776;2023-10-09T09:42:57;18.60;72.80
70184;DHT22;57554;51.546;6.776;2023-10-09T09:45:37;18.60;72.90
70184;DHT22;57554;51.546;6.776;2023-10-09T09:48:03;18.70;73.00
70184;DHT22;57554;51.546;6.776;2023-10-09T09:50:33;18.80;72.80
70184;DHT22;57554;51.546;6.776;2023-10-09T09:53:02;18.90;72.50
70184;DHT22;57554;51.546;6.776;2023-10-09T09:55:39;19.00;72.40
70184;DHT22;57554;51.546;6.776;2023-10-09T09:58:09;19.00;72.20
70184;DHT22;57554;51.546;6.776;2023-10-09T10:00:45;19.20;71.30
70184;DHT22;57554;51.546;6.776;2023-10-09T10:03:36;19.30;70.70
70184;DHT22;57554;51.546;6.776;2023-10-09T10:06:04;19.40;70.20
70184;DHT22;57554;51.546;6.776;2023-10-09T10:08:35;19.40;70.10
70184;DHT22;57554;51.546;6.776;2023-10-09T10:11:04;19.40;70.00
70184;DHT22;57554;51.546;6.776;2023-10-09T10:16:09;19.40;70.00
70184;DHT22;57554;51.546;6.776;2023-10-09T10:19:01;19.50;69.70
70184;DHT22;57554;51.546;6.776;2023-10-09T10:21:40;19.60;69.70
70184;DHT22;57554;51.546;6.776;2023-10-09T10:29:44;19.70;69.30
70184;DHT22;57554;51.546;6.776;2023-10-09T10:32:11;19.70;69.20
70184;DHT22;57554;51.546;6.776;2023-10-09T10:34:52;19.80;69.10
70184;DHT22;57554;51.546;6.776;2023-10-09T10:37:43;20.00;68.70
70184;DHT22;57554;51.546;6.776;2023-10-09T10:40:26;20.10;68.80
70184;DHT22;57554;51.546;6.776;2023-10-09T10:43:06;20.30;67.70
70184;DHT22;57554;51.546;6.776;2023-10-09T10:45:36;20.40;67.70
70184;DHT22;57554;51.546;6.776;2023-10-09T10:48:04;20.40;67.20
70184;DHT22;57554;51.546;6.776;2023-10-09T10:50:34;20.40;67.20
70184;DHT22;57554;51.546;6.776;2023-10-09T10:53:27;20.50;66.90
70184;DHT22;57554;51.546;6.776;2023-10-09T10:56:01;20.50;66.70
70184;DHT22;57554;51.546;6.776;2023-10-09T10:58:39;20.60;66.40
70184;DHT22;57554;51.546;6.776;2023-10-09T11:01:35;20.70;65.60
70184;DHT22;57554;51.546;6.776;2023-10-09T11:04:26;20.70;66.10
70184;DHT22;57554;51.546;6.776;2023-10-09T11:06:55;20.80;66.00
70184;DHT22;57554;51.546;6.776;2023-10-09T11:09:51;20.90;65.00
70184;DHT22;57554;51.546;6.776;2023-10-09T11:12:46;20.90;64.90
70184;DHT22;57554;51.546;6.776;2023-10-09T11:15:29;20.80;65.20
70184;DHT22;57554;51.546;6.776;2023-10-09T11:18:07;20.80;65.40
70184;DHT22;57554;51.546;6.776;2023-10-09T11:20:36;20.80;64.90
70184;DHT22;57554;51.546;6.776;2023-10-09T11:23:04;20.80;64.90
70184;DHT22;57554;51.546;6.776;2023-10-09T11:25:39;20.90;64.90
70184;DHT22;57554;51.546;6.776;2023-10-09T11:28:19;20.90;64.90
70184;DHT22;57554;51.546;6.776;2023-10-09T11:31:18;20.90;64.90
70184;DHT22;57554;51.546;6.776;2023-10-09T11:33:48;21.00;65.00
70184;DHT22;57554;51.546;6.776;2023-10-09T11:36:17;21.10;65.00
70184;DHT22;57554;51.546;6.776;2023-10-09T11:38:43;21.20;64.20
70184;DHT22;57554;51.546;6.776;2023-10-09T11:41:17;21.30;64.10
70184;DHT22;57554;51.546;6.776;2023-10-09T11:43:51;21.40;64.30
70184;DHT22;57554;51.546;6.776;2023-10-09T11:46:20;21.50;64.10
70184;DHT22;57554;51.546;6.776;2023-10-09T11:49:07;21.50;63.10
70184;DHT22;57554;51.546;6.776;2023-10-09T11:51:45;21.50;62.90
70184;DHT22;57554;51.546;6.776;2023-10-09T11:54:33;21.50;62.30
70184;DHT22;57554;51.546;6.776;2023-10-09T11:56:59;21.50;62.80
70184;DHT22;57554;51.546;6.776;2023-10-09T11:59:31;21.50;63.10
70184;DHT22;57554;51.546;6.776;2023-10-09T12:02:04;21.60;63.60
70184;DHT22;57554;51.546;6.776;2023-10-09T12:04:30;21.70;63.60
70184;DHT22;57554;51.546;6.776;2023-10-09T12:06:59;21.70;63.30
70184;DHT22;57554;51.546;6.776;2023-10-09T12:09:35;21.60;63.20
70184;DHT22;57554;51.546;6.776;2023-10-09T12:12:07;21.70;63.30
70184;DHT22;57554;51.546;6.776;2023-10-09T12:14:34;21.70;63.50
70184;DHT22;57554;51.546;6.776;2023-10-09T12:17:00;21.60;63.30
70184;DHT22;57554;51.546;6.776;2023-10-09T12:19:38;21.50;63.40
70184;DHT22;57554;51.546;6.776;2023-10-09T12:22:08;21.40;63.50
70184;DHT22;57554;51.546;6.776;2023-10-09T12:24:41;21.40;64.00
70184;DHT22;57554;51.546;6.776;2023-10-09T12:27:09;21.40;63.80
70184;DHT22;57554;51.546;6.776;2023-10-09T12:29:37;21.40;64.10
70184;DHT22;57554;51.546;6.776;2023-10-09T12:32:02;21.50;63.80
70184;DHT22;57554;51.546;6.776;2023-10-09T12:34:29;21.50;63.50
70184;DHT22;57554;51.546;6.776;2023-10-09T12:36:59;21.50;63.30
70184;DHT22;57554;51.546;6.776;2023-10-09T12:39:27;21.50;63.60
70184;DHT22;57554;51.546;6.776;2023-10-09T12:41:59;21.50;63.70
70184;DHT22;57554;51.546;6.776;2023-10-09T12:44:35;21.50;63.70
70184;DHT22;57554;51.546;6.776;2023-10-09T12:47:05;21.60;63.40
70184;DHT22;57554;51.546;6.776;2023-10-09T12:49:31;21.60;63.30
70184;DHT22;57554;51.546;6.776;2023-10-09T12:51:56;21.70;63.40
70184;DHT22;57554;51.546;6.776;2023-10-09T12:54:25;21.80;62.80
70184;DHT22;57554;51.546;6.776;2023-10-09T12:56:54;21.90;62.10
70184;DHT22;57554;51.546;6.776;2023-10-09T12:59:20;21.90;62.20
70184;DHT22;57554;51.546;6.776;2023-10-09T13:01:47;22.00;62.60
70184;DHT22;57554;51.546;6.776;2023-10-09T13:04:18;22.10;62.20
70184;DHT22;57554;51.546;6.776;2023-10-09T13:06:48;22.10;62.10
70184;DHT22;57554;51.546;6.776;2023-10-09T13:09:17;22.10;62.00
70184;DHT22;57554;51.546;6.776;2023-10-09T13:11:50;22.10;62.30
70184;DHT22;57554;51.546;6.776;2023-10-09T13:14:16;22.10;62.60
70184;DHT22;57554;51.546;6.776;2023-10-09T13:16:48;22.20;62.60
70184;DHT22;57554;51.546;6.776;2023-10-09T13:19:16;22.30;62.50
70184;DHT22;57554;51.546;6.776;2023-10-09T13:21:43;22.50;62.30
70184;DHT22;57554;51.546;6.776;2023-10-09T13:24:09;22.60;61.80
70184;DHT22;57554;51.546;6.776;2023-10-09T13:26:49;22.70;61.30
70184;DHT22;57554;51.546;6.776;2023-10-09T13:29:17;22.80;60.00
70184;DHT22;57554;51.546;6.776;2023-10-09T13:31:50;22.80;60.70
70184;DHT22;57554;51.546;6.776;2023-10-09T13:34:23;22.80;60.60
70184;DHT22;57554;51.546;6.776;2023-10-09T13:36:53;22.80;60.80
70184;DHT22;57554;51.546;6.776;2023-10-09T13:39:19;22.90;60.60
70184;DHT22;57554;51.546;6.776;2023-10-09T13:41:45;22.80;60.70
70184;DHT22;57554;51.546;6.776;2023-10-09T13:44:11;22.80;60.60
70184;DHT22;57554;51.546;6.776;2023-10-09T13:46:37;22.80;59.90
70184;DHT22;57554;51.546;6.776;2023-10-09T13:49:10;22.80;60.30
70184;DHT22;57554;51.546;6.776;2023-10-09T13:51:43;22.80;60.20
70184;DHT22;57554;51.546;6.776;2023-10-09T13:54:12;22.80;60.00
70184;DHT22;57554;51.546;6.776;2023-10-09T13:56:46;22.70;60.00
70184;DHT22;57554;51.546;6.776;2023-10-09T13:59:12;22.70;60.10
70184;DHT22;57554;51.546;6.776;2023-10-09T14:01:37;22.60;60.40
70184;DHT22;57554;51.546;6.776;2023-10-09T14:04:05;22.50;60.50
70184;DHT22;57554;51.546;6.776;2023-10-09T14:06:33;22.50;60.50
70184;DHT22;57554;51.546;6.776;2023-10-09T14:09:01;22.50;60.50
70184;DHT22;57554;51.546;6.776;2023-10-09T14:11:30;22.40;60.50
70184;DHT22;57554;51.546;6.776;2023-10-09T14:13:56;22.40;60.80
70184;DHT22;57554;51.546;6.776;2023-10-09T14:16:21;22.40;61.10
70184;DHT22;57554;51.546;6.776;2023-10-09T14:18:54;22.40;60.90
70184;DHT22;57554;51.546;6.776;2023-10-09T14:21:23;22.30;61.30
70184;DHT22;57554;51.546;6.776;2023-10-09T14:23:51;22.30;61.60
70184;DHT22;57554;51.546;6.776;2023-10-09T14:26:20;22.30;61.80
70184;DHT22;57554;51.546;6.776;2023-10-09T14:28:47;22.30;61.90
70184;DHT22;57554;51.546;6.776;2023-10-09T14:31:14;22.20;61.80
70184;DHT22;57554;51.546;6.776;2023-10-09T14:33:48;22.20;61.50
70184;DHT22;57554;51.546;6.776;2023-10-09T14:36:17;22.10;61.80
70184;DHT22;57554;51.546;6.776;2023-10-09T14:38:43;22.10;62.10
70184;DHT22;57554;51.546;6.776;2023-10-09T14:41:12;22.10;62.30
70184;DHT22;57554;51.546;6.776;2023-10-09T14:43:38;22.00;62.40
70184;DHT22;57554;51.546;6.776;2023-10-09T14:46:04;22.00;62.50
70184;DHT22;57554;51.546;6.776;2023-10-09T14:48:37;22.00;62.70
70184;DHT22;57554;51.546;6.776;2023-10-09T14:51:03;21.90;62.80
70184;DHT22;57554;51.546;6.776;2023-10-09T14:53:36;21.90;62.80
70184;DHT22;57554;51.546;6.776;2023-10-09T14:56:02;21.70;63.00
70184;DHT22;57554;51.546;6.776;2023-10-09T14:58:34;21.60;63.40
70184;DHT22;57554;51.546;6.776;2023-10-09T15:01:07;21.50;64.00
70184;DHT22;57554;51.546;6.776;2023-10-09T15:03:35;21.40;64.40
70184;DHT22;57554;51.546;6.776;2023-10-09T15:06:03;21.40;64.60
70184;DHT22;57554;51.546;6.776;2023-10-09T15:08:28;21.50;64.70
70184;DHT22;57554;51.546;6.776;2023-10-09T15:10:55;21.50;64.70
70184;DHT22;57554;51.546;6.776;2023-10-09T15:13:22;21.60;64.70
70184;DHT22;57554;51.546;6.776;2023-10-09T15:15:54;21.70;64.50
70184;DHT22;57554;51.546;6.776;2023-10-09T15:18:21;21.70;64.40
70184;DHT22;57554;51.546;6.776;2023-10-09T15:20:50;21.70;64.50
70184;DHT22;57554;51.546;6.776;2023-10-09T15:23:17;21.80;64.50
70184;DHT22;57554;51.546;6.776;2023-10-09T15:25:45;21.80;64.40
70184;DHT22;57554;51.546;6.776;2023-10-09T15:28:11;21.80;64.40
70184;DHT22;57554;51.546;6.776;2023-10-09T15:30:38;21.80;64.30
70184;DHT22;57554;51.546;6.776;2023-10-09T15:33:06;21.70;64.50
70184;DHT22;57554;51.546;6.776;2023-10-09T15:35:32;21.60;64.60
70184;DHT22;57554;51.546;6.776;2023-10-09T15:38:02;21.60;64.80
70184;DHT22;57554;51.546;6.776;2023-10-09T15:40:31;21.60;64.90
70184;DHT22;57554;51.546;6.776;2023-10-09T15:43:00;21.50;65.10
70184;DHT22;57554;51.546;6.776;2023-10-09T15:45:26;21.40;65.30
70184;DHT22;57554;51.546;6.776;2023-10-09T15:47:54;21.40;65.50
70184;DHT22;57554;51.546;6.776;2023-10-09T15:50:21;21.30;65.80
70184;DHT22;57554;51.546;6.776;2023-10-09T15:52:53;21.30;65.90
70184;DHT22;57554;51.546;6.776;2023-10-09T15:55:19;21.30;66.10
70184;DHT22;57554;51.546;6.776;2023-10-09T15:57:46;21.30;66.00
70184;DHT22;57554;51.546;6.776;2023-10-09T16:00:14;21.30;65.90
70184;DHT22;57554;51.546;6.776;2023-10-09T16:02:44;21.30;65.90
70184;DHT22;57554;51.546;6.776;2023-10-09T16:05:10;21.30;65.80
70184;DHT22;57554;51.546;6.776;2023-10-09T16:07:39;21.30;65.90
70184;DHT22;57554;51.546;6.776;2023-10-09T16:10:06;21.30;66.00
70184;DHT22;57554;51.546;6.776;2023-10-09T16:12:34;21.30;66.20
70184;DHT22;57554;51.546;6.776;2023-10-09T16:15:00;21.30;66.10
70184;DHT22;57554;51.546;6.776;2023-10-09T16:17:26;21.20;66.00
70184;DHT22;57554;51.546;6.776;2023-10-09T16:19:52;21.20;66.10
70184;DHT22;57554;51.546;6.776;2023-10-09T16:22:17;21.10;66.20
70184;DHT22;57554;51.546;6.776;2023-10-09T16:24:46;21.00;66.50